sensor_id;sensor_type;location;lat;lon;timestamp;P1;durP1;ratioP1;P2;durP2;ratioP2
1366;SDS011;16877;48.810;9.282;2023-03-01T00:02:20;16.00;;;14.03;;
1366;SDS011;16877;48.810;9.282;2023-03-01T00:04:48;18.47;;;15.27;;
1366;SDS011;16877;48.810;9.282;2023-03-01T00:07:17;17.20;;;15.43;;
1366;SDS011;16877;48.810;9.282;2023-03-01T00:09:45;16.63;;;14.47;;
1366;SDS011;16877;48.810;9.282;2023-03-01T00:12:12;17.10;;;15.37;;
1366;SDS011;16877;48.810;9.282;2023-03-01T00:14:40;16.73;;;15.13;;
1366;SDS011;16877;48.810;9.282;2023-03-01T00:17:08;18.97;;;16.60;;
1366;SDS011;16877;48.810;9.282;2023-03-01T00:19:36;16.90;;;15.20;;
1366;SDS011;16877;48.810;9.282;2023-03-01T00:22:03;15.90;;;14.20;;
1366;SDS011;16877;48.810;9.282;2023-03-01T00:24:33;15.93;;;14.23;;
1366;SDS011;16877;48.810;9.282;2023-03-01T00:27:00;17.13;;;15.33;;
1366;SDS011;16877;48.810;9.282;2023-03-01T00:29:28;15.83;;;13.57;;
1366;SDS011;16877;48.810;9.282;2023-03-01T00:31:55;16.37;;;14.57;;
1366;SDS011;16877;48.810;9.282;2023-03-01T00:34:23;15.57;;;14.03;;
1366;SDS011;16877;48.810;9.282;2023-03-01T00:36:50;16.60;;;14.63;;
1366;SDS011;16877;48.810;9.282;2023-03-01T00:39:17;15.67;;;14.17;;
1366;SDS011;16877;48.810;9.282;2023-03-01T00:41:46;15.60;;;14.10;;
1366;SDS011;16877;48.810;9.282;2023-03-01T00:44:14;15.90;;;14.20;;
1366;SDS011;16877;48.810;9.282;2023-03-01T00:46:42;15.30;;;13.70;;
1366;SDS011;16877;48.810;9.282;2023-03-01T00:49:11;14.87;;;13.37;;
1366;SDS011;16877;48.810;9.282;2023-03-01T00:51:38;15.30;;;13.80;;
1366;SDS011;16877;48.810;9.282;2023-03-01T00:54:07;16.40;;;14.80;;
1366;SDS011;16877;48.810;9.282;2023-03-01T00:56:35;15.77;;;14.33;;
1366;SDS011;16877;48.810;9.282;2023-03-01T00:59:04;15.70;;;14.20;;
1366;SDS011;16877;48.810;9.282;2023-03-01T01:01:33;15.93;;;14.23;;
1366;SDS011;16877;48.810;9.282;2023-03-01T01:04:00;15.83;;;14.23;;
1366;SDS011;16877;48.810;9.282;2023-03-01T01:06:45;14.80;;;13.33;;
1366;SDS011;16877;48.810;9.282;2023-03-01T01:09:14;16.50;;;14.03;;
1366;SDS011;16877;48.810;9.282;2023-03-01T01:11:43;15.13;;;13.63;;
1366;SDS011;16877;48.810;9.282;2023-03-01T01:14:13;15.17;;;13.60;;
1366;SDS011;16877;48.810;9.282;2023-03-01T01:16:51;16.50;;;13.60;;
1366;SDS011;16877;48.810;9.282;2023-03-01T01:19:18;16.20;;;14.60;;
1366;SDS011;16877;48.810;9.282;2023-03-01T01:21:46;15.93;;;14.23;;
1366;SDS011;16877;48.810;9.282;2023-03-01T01:24:13;15.33;;;13.70;;
1366;SDS011;16877;48.810;9.282;2023-03-01T01:26:42;15.60;;;14.00;;
1366;SDS011;16877;48.810;9.282;2023-03-01T01:29:09;15.60;;;14.07;;
1366;SDS011;16877;48.810;9.282;2023-03-01T01:31:39;14.83;;;13.33;;
1366;SDS011;16877;48.810;9.282;2023-03-01T01:34:12;15.07;;;13.60;;
1366;SDS011;16877;48.810;9.282;2023-03-01T01:36:41;15.83;;;14.27;;
1366;SDS011;16877;48.810;9.282;2023-03-01T01:39:10;16.73;;;14.33;;
1366;SDS011;16877;48.810;9.282;2023-03-01T01:41:38;15.10;;;13.60;;
1366;SDS011;16877;48.810;9.282;2023-03-01T01:44:12;14.77;;;13.20;;
1366;SDS011;16877;48.810;9.282;2023-03-01T01:46:44;14.37;;;13.00;;
1366;SDS011;16877;48.810;9.282;2023-03-01T01:52:06;15.40;;;13.80;;
1366;SDS011;16877;48.810;9.282;2023-03-01T01:54:38;15.80;;;14.30;;
1366;SDS011;16877;48.810;9.282;2023-03-01T01:57:09;15.47;;;13.97;;
1366;SDS011;16877;48.810;9.282;2023-03-01T01:59:42;16.00;;;14.40;;
1366;SDS011;16877;48.810;9.282;2023-03-01T02:02:15;16.80;;;13.10;;
1366;SDS011;16877;48.810;9.282;2023-03-01T02:04:44;16.77;;;15.07;;
1366;SDS011;16877;48.810;9.282;2023-03-01T02:07:14;14.87;;;13.43;;
1366;SDS011;16877;48.810;9.282;2023-03-01T02:09:43;15.27;;;13.67;;
1366;SDS011;16877;48.810;9.282;2023-03-01T02:12:13;16.50;;;14.83;;
1366;SDS011;16877;48.810;9.282;2023-03-01T02:14:42;15.03;;;13.40;;
1366;SDS011;16877;48.810;9.282;2023-03-01T02:17:09;15.70;;;14.10;;
1366;SDS011;16877;48.810;9.282;2023-03-01T02:19:46;16.07;;;14.50;;
1366;SDS011;16877;48.810;9.282;2023-03-01T02:22:36;16.60;;;14.80;;
1366;SDS011;16877;48.810;9.282;2023-03-01T02:25:12;15.90;;;14.13;;
1366;SDS011;16877;48.810;9.282;2023-03-01T02:27:49;16.13;;;14.43;;
1366;SDS011;16877;48.810;9.282;2023-03-01T02:30:25;14.50;;;13.10;;
1366;SDS011;16877;48.810;9.282;2023-03-01T02:32:53;15.67;;;14.10;;
1366;SDS011;16877;48.810;9.282;2023-03-01T02:35:27;14.30;;;12.93;;
1366;SDS011;16877;48.810;9.282;2023-03-01T02:37:58;15.07;;;13.47;;
1366;SDS011;16877;48.810;9.282;2023-03-01T02:40:28;15.10;;;13.50;;
1366;SDS011;16877;48.810;9.282;2023-03-01T02:42:58;15.57;;;14.07;;
1366;SDS011;16877;48.810;9.282;2023-03-01T02:45:27;15.50;;;13.90;;
1366;SDS011;16877;48.810;9.282;2023-03-01T02:47:55;16.60;;;14.80;;
1366;SDS011;16877;48.810;9.282;2023-03-01T02:50:30;15.47;;;13.93;;
1366;SDS011;16877;48.810;9.282;2023-03-01T02:53:12;17.37;;;13.70;;
1366;SDS011;16877;48.810;9.282;2023-03-01T02:55:43;16.10;;;14.60;;
1366;SDS011;16877;48.810;9.282;2023-03-01T02:58:11;14.90;;;13.50;;
1366;SDS011;16877;48.810;9.282;2023-03-01T03:00:41;15.37;;;13.93;;
1366;SDS011;16877;48.810;9.282;2023-03-01T03:03:10;17.93;;;16.23;;
1366;SDS011;16877;48.810;9.282;2023-03-01T03:05:40;20.17;;;14.77;;
1366;SDS011;16877;48.810;9.282;2023-03-01T03:08:09;16.47;;;14.77;;
1366;SDS011;16877;48.810;9.282;2023-03-01T03:10:37;15.87;;;14.37;;
1366;SDS011;16877;48.810;9.282;2023-03-01T03:13:06;15.67;;;14.13;;
1366;SDS011;16877;48.810;9.282;2023-03-01T03:15:35;15.60;;;14.10;;
1366;SDS011;16877;48.810;9.282;2023-03-01T03:18:06;17.13;;;15.33;;
1366;SDS011;16877;48.810;9.282;2023-03-01T03:20:35;15.10;;;13.63;;
1366;SDS011;16877;48.810;9.282;2023-03-01T03:23:05;15.43;;;13.80;;
1366;SDS011;16877;48.810;9.282;2023-03-01T03:25:33;16.00;;;14.40;;
1366;SDS011;16877;48.810;9.282;2023-03-01T03:28:03;17.80;;;16.00;;
1366;SDS011;16877;48.810;9.282;2023-03-01T03:30:35;16.57;;;14.57;;
1366;SDS011;16877;48.810;9.282;2023-03-01T03:33:05;14.50;;;13.00;;
1366;SDS011;16877;48.810;9.282;2023-03-01T03:35:33;15.03;;;13.53;;
1366;SDS011;16877;48.810;9.282;2023-03-01T03:38:06;15.57;;;14.07;;
1366;SDS011;16877;48.810;9.282;2023-03-01T03:40:40;16.80;;;15.10;;
1366;SDS011;16877;48.810;9.282;2023-03-01T03:43:09;17.47;;;15.20;;
1366;SDS011;16877;48.810;9.282;2023-03-01T03:45:38;16.33;;;14.63;;
1366;SDS011;16877;48.810;9.282;2023-03-01T03:48:08;16.30;;;14.60;;
1366;SDS011;16877;48.810;9.282;2023-03-01T03:50:36;16.97;;;15.17;;
1366;SDS011;16877;48.810;9.282;2023-03-01T03:53:06;17.70;;;15.90;;
1366;SDS011;16877;48.810;9.282;2023-03-01T03:55:35;17.13;;;15.43;;
1366;SDS011;16877;48.810;9.282;2023-03-01T03:58:04;15.87;;;14.27;;
1366;SDS011;16877;48.810;9.282;2023-03-01T04:00:33;17.53;;;15.60;;
1366;SDS011;16877;48.810;9.282;2023-03-01T04:03:01;17.60;;;15.83;;
1366;SDS011;16877;48.810;9.282;2023-03-01T04:05:30;16.30;;;14.60;;
1366;SDS011;16877;48.810;9.282;2023-03-01T04:07:58;17.10;;;15.40;;
1366;SDS011;16877;48.810;9.282;2023-03-01T04:10:32;17.23;;;15.40;;
1366;SDS011;16877;48.810;9.282;2023-03-01T04:13:02;16.50;;;14.80;;
1366;SDS011;16877;48.810;9.282;2023-03-01T04:15:31;16.33;;;14.63;;
1366;SDS011;16877;48.810;9.282;2023-03-01T04:17:59;16.10;;;14.57;;
1366;SDS011;16877;48.810;9.282;2023-03-01T04:20:31;16.50;;;14.90;;
1366;SDS011;16877;48.810;9.282;2023-03-01T04:23:00;18.33;;;16.50;;
1366;SDS011;16877;48.810;9.282;2023-03-01T04:25:35;16.93;;;15.13;;
1366;SDS011;16877;48.810;9.282;2023-03-01T04:28:03;16.53;;;14.80;;
1366;SDS011;16877;48.810;9.282;2023-03-01T04:30:31;19.13;;;17.30;;
1366;SDS011;16877;48.810;9.282;2023-03-01T04:33:02;18.37;;;16.57;;
1366;SDS011;16877;48.810;9.282;2023-03-01T04:35:31;16.13;;;14.60;;
1366;SDS011;16877;48.810;9.282;2023-03-01T04:37:59;18.37;;;16.57;;
1366;SDS011;16877;48.810;9.282;2023-03-01T04:40:27;17.20;;;15.70;;
1366;SDS011;16877;48.810;9.282;2023-03-01T04:42:54;17.37;;;15.63;;
1366;SDS011;16877;48.810;9.282;2023-03-01T04:45:22;18.23;;;16.43;;
1366;SDS011;16877;48.810;9.282;2023-03-01T04:47:50;17.93;;;16.13;;
1366;SDS011;16877;48.810;9.282;2023-03-01T04:50:18;18.00;;;16.20;;
1366;SDS011;16877;48.810;9.282;2023-03-01T04:52:50;17.07;;;15.43;;
1366;SDS011;16877;48.810;9.282;2023-03-01T04:55:18;16.47;;;14.80;;
1366;SDS011;16877;48.810;9.282;2023-03-01T04:57:47;17.73;;;15.97;;
1366;SDS011;16877;48.810;9.282;2023-03-01T05:00:15;18.03;;;16.13;;
1366;SDS011;16877;48.810;9.282;2023-03-01T05:02:49;17.73;;;15.97;;
1366;SDS011;16877;48.810;9.282;2023-03-01T05:05:18;18.30;;;16.40;;
1366;SDS011;16877;48.810;9.282;2023-03-01T05:07:52;18.67;;;16.87;;
1366;SDS011;16877;48.810;9.282;2023-03-01T05:10:22;17.90;;;16.10;;
1366;SDS011;16877;48.810;9.282;2023-03-01T05:12:54;19.30;;;17.50;;
1366;SDS011;16877;48.810;9.282;2023-03-01T05:15:22;18.00;;;16.20;;
1366;SDS011;16877;48.810;9.282;2023-03-01T05:17:50;18.27;;;16.47;;
1366;SDS011;16877;48.810;9.282;2023-03-01T05:20:19;17.97;;;16.10;;
1366;SDS011;16877;48.810;9.282;2023-03-01T05:22:49;18.30;;;16.37;;
1366;SDS011;16877;48.810;9.282;2023-03-01T05:25:19;21.80;;;16.17;;
1366;SDS011;16877;48.810;9.282;2023-03-01T05:27:46;17.80;;;16.00;;
1366;SDS011;16877;48.810;9.282;2023-03-01T05:30:15;19.17;;;17.20;;
1366;SDS011;16877;48.810;9.282;2023-03-01T05:32:44;17.20;;;15.40;;
1366;SDS011;16877;48.810;9.282;2023-03-01T05:35:13;17.20;;;15.50;;
1366;SDS011;16877;48.810;9.282;2023-03-01T05:37:42;18.07;;;16.13;;
1366;SDS011;16877;48.810;9.282;2023-03-01T05:40:12;19.40;;;17.43;;
1366;SDS011;16877;48.810;9.282;2023-03-01T05:42:44;18.27;;;16.57;;
1366;SDS011;16877;48.810;9.282;2023-03-01T05:45:13;18.30;;;16.50;;
1366;SDS011;16877;48.810;9.282;2023-03-01T05:47:42;18.43;;;16.50;;
1366;SDS011;16877;48.810;9.282;2023-03-01T05:50:12;18.73;;;17.00;;
1366;SDS011;16877;48.810;9.282;2023-03-01T05:52:43;18.90;;;16.90;;
1366;SDS011;16877;48.810;9.282;2023-03-01T05:55:11;18.80;;;16.90;;
1366;SDS011;16877;48.810;9.282;2023-03-01T05:57:39;19.97;;;17.87;;
1366;SDS011;16877;48.810;9.282;2023-03-01T06:00:12;17.80;;;16.10;;
1366;SDS011;16877;48.810;9.282;2023-03-01T06:02:41;19.30;;;17.40;;
1366;SDS011;16877;48.810;9.282;2023-03-01T06:05:09;19.50;;;17.40;;
1366;SDS011;16877;48.810;9.282;2023-03-01T06:07:37;19.83;;;17.93;;
1366;SDS011;16877;48.810;9.282;2023-03-01T06:10:09;20.27;;;18.17;;
1366;SDS011;16877;48.810;9.282;2023-03-01T06:12:41;20.00;;;17.93;;
1366;SDS011;16877;48.810;9.282;2023-03-01T06:15:12;19.50;;;17.50;;
1366;SDS011;16877;48.810;9.282;2023-03-01T06:17:40;20.90;;;18.77;;
1366;SDS011;16877;48.810;9.282;2023-03-01T06:20:14;18.67;;;16.80;;
1366;SDS011;16877;48.810;9.282;2023-03-01T06:22:43;19.33;;;17.33;;
1366;SDS011;16877;48.810;9.282;2023-03-01T06:25:11;15.83;;;14.37;;
1366;SDS011;16877;48.810;9.282;2023-03-01T06:27:39;21.60;;;19.27;;
1366;SDS011;16877;48.810;9.282;2023-03-01T06:30:07;20.23;;;18.13;;
1366;SDS011;16877;48.810;9.282;2023-03-01T06:32:38;18.60;;;16.60;;
1366;SDS011;16877;48.810;9.282;2023-03-01T06:35:07;18.97;;;17.03;;
1366;SDS011;16877;48.810;9.282;2023-03-01T06:37:35;19.03;;;17.03;;
1366;SDS011;16877;48.810;9.282;2023-03-01T06:40:03;20.53;;;18.00;;
1366;SDS011;16877;48.810;9.282;2023-03-01T06:42:33;18.60;;;16.60;;
1366;SDS011;16877;48.810;9.282;2023-03-01T06:45:00;19.00;;;17.10;;
1366;SDS011;16877;48.810;9.282;2023-03-01T06:47:28;18.30;;;16.50;;
1366;SDS011;16877;48.810;9.282;2023-03-01T06:49:57;19.73;;;17.83;;
1366;SDS011;16877;48.810;9.282;2023-03-01T06:52:25;19.23;;;17.43;;
1366;SDS011;16877;48.810;9.282;2023-03-01T06:54:52;22.73;;;17.83;;
1366;SDS011;16877;48.810;9.282;2023-03-01T06:57:34;20.40;;;18.30;;
1366;SDS011;16877;48.810;9.282;2023-03-01T07:00:02;20.33;;;18.10;;
1366;SDS011;16877;48.810;9.282;2023-03-01T07:02:30;17.70;;;15.90;;
1366;SDS011;16877;48.810;9.282;2023-03-01T07:04:58;19.87;;;17.90;;
1366;SDS011;16877;48.810;9.282;2023-03-01T07:07:26;21.23;;;19.03;;
1366;SDS011;16877;48.810;9.282;2023-03-01T07:09:56;20.57;;;17.13;;
1366;SDS011;16877;48.810;9.282;2023-03-01T07:12:23;19.67;;;17.80;;
1366;SDS011;16877;48.810;9.282;2023-03-01T07:14:51;20.83;;;18.67;;
1366;SDS011;16877;48.810;9.282;2023-03-01T07:17:19;22.47;;;16.67;;
1366;SDS011;16877;48.810;9.282;2023-03-01T07:19:46;20.80;;;18.77;;
1366;SDS011;16877;48.810;9.282;2023-03-01T07:22:30;20.00;;;17.90;;
1366;SDS011;16877;48.810;9.282;2023-03-01T07:24:57;20.37;;;18.43;;
1366;SDS011;16877;48.810;9.282;2023-03-01T07:27:28;18.00;;;16.30;;
1366;SDS011;16877;48.810;9.282;2023-03-01T07:29:56;19.13;;;17.13;;
1366;SDS011;16877;48.810;9.282;2023-03-01T07:32:23;20.07;;;18.07;;
1366;SDS011;16877;48.810;9.282;2023-03-01T07:34:51;19.50;;;17.60;;
1366;SDS011;16877;48.810;9.282;2023-03-01T07:37:19;21.20;;;18.17;;
1366;SDS011;16877;48.810;9.282;2023-03-01T07:39:48;19.90;;;17.80;;
1366;SDS011;16877;48.810;9.282;2023-03-01T07:42:16;20.30;;;18.30;;
1366;SDS011;16877;48.810;9.282;2023-03-01T07:44:43;18.33;;;16.40;;
1366;SDS011;16877;48.810;9.282;2023-03-01T07:47:11;22.43;;;20.23;;
1366;SDS011;16877;48.810;9.282;2023-03-01T07:49:42;13.87;;;12.57;;
1366;SDS011;16877;48.810;9.282;2023-03-01T07:52:14;6.70;;;5.70;;
1366;SDS011;16877;48.810;9.282;2023-03-01T07:54:42;8.00;;;6.17;;
1366;SDS011;16877;48.810;9.282;2023-03-01T07:57:11;6.80;;;6.03;;
1366;SDS011;16877;48.810;9.282;2023-03-01T07:59:38;7.73;;;6.90;;
1366;SDS011;16877;48.810;9.282;2023-03-01T08:02:06;8.50;;;6.90;;
1366;SDS011;16877;48.810;9.282;2023-03-01T08:04:34;6.20;;;5.53;;
1366;SDS011;16877;48.810;9.282;2023-03-01T08:07:04;8.83;;;7.20;;
1366;SDS011;16877;48.810;9.282;2023-03-01T08:09:33;10.47;;;8.67;;
1366;SDS011;16877;48.810;9.282;2023-03-01T08:12:01;12.67;;;11.47;;
1366;SDS011;16877;48.810;9.282;2023-03-01T08:14:31;12.70;;;11.40;;
1366;SDS011;16877;48.810;9.282;2023-03-01T08:16:58;13.93;;;12.63;;
1366;SDS011;16877;48.810;9.282;2023-03-01T08:19:28;14.33;;;12.93;;
1366;SDS011;16877;48.810;9.282;2023-03-01T08:21:56;14.20;;;12.70;;
1366;SDS011;16877;48.810;9.282;2023-03-01T08:24:27;16.83;;;14.53;;
1366;SDS011;16877;48.810;9.282;2023-03-01T08:26:55;17.07;;;15.30;;
1366;SDS011;16877;48.810;9.282;2023-03-01T08:29:22;15.50;;;14.00;;
1366;SDS011;16877;48.810;9.282;2023-03-01T08:31:53;19.33;;;17.37;;
1366;SDS011;16877;48.810;9.282;2023-03-01T08:34:20;16.67;;;15.07;;
1366;SDS011;16877;48.810;9.282;2023-03-01T08:36:52;17.97;;;16.17;;
1366;SDS011;16877;48.810;9.282;2023-03-01T08:39:20;19.10;;;17.30;;
1366;SDS011;16877;48.810;9.282;2023-03-01T08:41:48;18.30;;;16.50;;
1366;SDS011;16877;48.810;9.282;2023-03-01T08:44:15;22.03;;;17.40;;
1366;SDS011;16877;48.810;9.282;2023-03-01T08:46:43;19.37;;;17.13;;
1366;SDS011;16877;48.810;9.282;2023-03-01T08:49:14;18.03;;;15.93;;
1366;SDS011;16877;48.810;9.282;2023-03-01T08:51:43;18.60;;;16.67;;
1366;SDS011;16877;48.810;9.282;2023-03-01T08:54:14;18.50;;;16.57;;
1366;SDS011;16877;48.810;9.282;2023-03-01T08:56:44;18.53;;;16.80;;
1366;SDS011;16877;48.810;9.282;2023-03-01T08:59:13;19.57;;;17.47;;
1366;SDS011;16877;48.810;9.282;2023-03-01T09:01:42;20.80;;;18.87;;
1366;SDS011;16877;48.810;9.282;2023-03-01T09:04:09;18.23;;;16.33;;
1366;SDS011;16877;48.810;9.282;2023-03-01T09:06:39;19.57;;;17.77;;
1366;SDS011;16877;48.810;9.282;2023-03-01T09:09:10;17.90;;;16.20;;
1366;SDS011;16877;48.810;9.282;2023-03-01T09:11:41;18.40;;;16.60;;
1366;SDS011;16877;48.810;9.282;2023-03-01T09:14:10;16.37;;;14.80;;
1366;SDS011;16877;48.810;9.282;2023-03-01T09:16:38;16.97;;;15.33;;
1366;SDS011;16877;48.810;9.282;2023-03-01T09:19:05;17.53;;;15.87;;
1366;SDS011;16877;48.810;9.282;2023-03-01T09:21:32;16.63;;;15.03;;
1366;SDS011;16877;48.810;9.282;2023-03-01T09:24:01;17.90;;;16.10;;
1366;SDS011;16877;48.810;9.282;2023-03-01T09:26:29;16.17;;;14.77;;
1366;SDS011;16877;48.810;9.282;2023-03-01T09:28:57;15.97;;;14.47;;
1366;SDS011;16877;48.810;9.282;2023-03-01T09:31:28;14.97;;;13.50;;
1366;SDS011;16877;48.810;9.282;2023-03-01T09:33:55;15.23;;;13.83;;
1366;SDS011;16877;48.810;9.282;2023-03-01T09:36:24;14.67;;;13.20;;
1366;SDS011;16877;48.810;9.282;2023-03-01T09:38:51;15.90;;;14.37;;
1366;SDS011;16877;48.810;9.282;2023-03-01T09:44:18;15.73;;;14.00;;
1366;SDS011;16877;48.810;9.282;2023-03-01T09:46:48;15.13;;;13.73;;
1366;SDS011;16877;48.810;9.282;2023-03-01T09:49:17;16.83;;;13.23;;
1366;SDS011;16877;48.810;9.282;2023-03-01T09:51:54;14.03;;;12.83;;
1366;SDS011;16877;48.810;9.282;2023-03-01T09:54:25;14.63;;;13.33;;
1366;SDS011;16877;48.810;9.282;2023-03-01T09:56:56;14.17;;;12.77;;
1366;SDS011;16877;48.810;9.282;2023-03-01T09:59:33;15.83;;;14.10;;
1366;SDS011;16877;48.810;9.282;2023-03-01T10:02:17;13.40;;;11.90;;
1366;SDS011;16877;48.810;9.282;2023-03-01T10:04:53;15.07;;;13.73;;
1366;SDS011;16877;48.810;9.282;2023-03-01T10:07:36;13.23;;;11.80;;
1366;SDS011;16877;48.810;9.282;2023-03-01T10:10:16;13.03;;;11.70;;
1366;SDS011;16877;48.810;9.282;2023-03-01T10:12:56;13.13;;;11.90;;
1366;SDS011;16877;48.810;9.282;2023-03-01T10:15:28;15.07;;;13.20;;
1366;SDS011;16877;48.810;9.282;2023-03-01T10:18:01;13.77;;;12.37;;
1366;SDS011;16877;48.810;9.282;2023-03-01T10:20:33;13.87;;;12.63;;
1366;SDS011;16877;48.810;9.282;2023-03-01T10:23:19;13.77;;;12.47;;
1366;SDS011;16877;48.810;9.282;2023-03-01T10:25:51;12.03;;;10.93;;
1366;SDS011;16877;48.810;9.282;2023-03-01T10:28:37;12.73;;;11.43;;
1366;SDS011;16877;48.810;9.282;2023-03-01T10:31:13;13.90;;;10.83;;
1366;SDS011;16877;48.810;9.282;2023-03-01T10:33:45;12.10;;;10.97;;
1366;SDS011;16877;48.810;9.282;2023-03-01T10:36:20;13.23;;;11.83;;
1366;SDS011;16877;48.810;9.282;2023-03-01T10:38:48;11.83;;;10.73;;
1366;SDS011;16877;48.810;9.282;2023-03-01T10:41:20;11.73;;;10.67;;
1366;SDS011;16877;48.810;9.282;2023-03-01T10:43:52;10.73;;;9.77;;
1366;SDS011;16877;48.810;9.282;2023-03-01T10:46:24;11.33;;;10.33;;
1366;SDS011;16877;48.810;9.282;2023-03-01T10:49:05;10.97;;;10.00;;
1366;SDS011;16877;48.810;9.282;2023-03-01T10:51:36;11.80;;;10.60;;
1366;SDS011;16877;48.810;9.282;2023-03-01T10:54:14;12.00;;;10.90;;
1366;SDS011;16877;48.810;9.282;2023-03-01T10:56:47;11.10;;;10.00;;
1366;SDS011;16877;48.810;9.282;2023-03-01T10:59:24;10.80;;;9.80;;
1366;SDS011;16877;48.810;9.282;2023-03-01T11:02:01;11.47;;;10.50;;
1366;SDS011;16877;48.810;9.282;2023-03-01T11:04:55;11.50;;;10.50;;
1366;SDS011;16877;48.810;9.282;2023-03-01T11:07:27;12.67;;;11.37;;
1366;SDS011;16877;48.810;9.282;2023-03-01T11:09:54;11.10;;;10.03;;
1366;SDS011;16877;48.810;9.282;2023-03-01T11:12:23;11.07;;;9.97;;
1366;SDS011;16877;48.810;9.282;2023-03-01T11:14:56;11.60;;;10.60;;
1366;SDS011;16877;48.810;9.282;2023-03-01T11:17:27;12.07;;;10.97;;
1366;SDS011;16877;48.810;9.282;2023-03-01T11:20:00;11.20;;;10.30;;
1366;SDS011;16877;48.810;9.282;2023-03-01T11:22:31;11.43;;;10.30;;
1366;SDS011;16877;48.810;9.282;2023-03-01T11:25:00;11.10;;;10.10;;
1366;SDS011;16877;48.810;9.282;2023-03-01T11:27:29;13.90;;;10.27;;
1366;SDS011;16877;48.810;9.282;2023-03-01T11:30:02;10.97;;;10.07;;
1366;SDS011;16877;48.810;9.282;2023-03-01T11:32:35;10.80;;;9.83;;
1366;SDS011;16877;48.810;9.282;2023-03-01T11:35:10;12.47;;;10.23;;
1366;SDS011;16877;48.810;9.282;2023-03-01T11:37:45;10.97;;;9.97;;
1366;SDS011;16877;48.810;9.282;2023-03-01T11:40:23;11.23;;;10.20;;
1366;SDS011;16877;48.810;9.282;2023-03-01T11:42:57;11.70;;;10.60;;
1366;SDS011;16877;48.810;9.282;2023-03-01T11:45:37;10.50;;;9.57;;
1366;SDS011;16877;48.810;9.282;2023-03-01T11:48:34;9.73;;;8.83;;
1366;SDS011;16877;48.810;9.282;2023-03-01T11:51:14;11.77;;;10.67;;
1366;SDS011;16877;48.810;9.282;2023-03-01T11:53:51;11.37;;;10.47;;
1366;SDS011;16877;48.810;9.282;2023-03-01T11:56:32;11.13;;;10.10;;
1366;SDS011;16877;48.810;9.282;2023-03-01T11:59:17;10.50;;;9.53;;
1366;SDS011;16877;48.810;9.282;2023-03-01T12:02:19;9.83;;;8.93;;
1366;SDS011;16877;48.810;9.282;2023-03-01T12:05:02;9.83;;;9.00;;
1366;SDS011;16877;48.810;9.282;2023-03-01T12:07:49;11.40;;;10.20;;
1366;SDS011;16877;48.810;9.282;2023-03-01T12:10:25;9.97;;;8.97;;
1366;SDS011;16877;48.810;9.282;2023-03-01T12:13:09;10.30;;;8.57;;
1366;SDS011;16877;48.810;9.282;2023-03-01T12:15:58;7.47;;;6.77;;
1366;SDS011;16877;48.810;9.282;2023-03-01T12:19:17;13.03;;;6.23;;
1366;SDS011;16877;48.810;9.282;2023-03-01T12:22:04;7.03;;;5.97;;
1366;SDS011;16877;48.810;9.282;2023-03-01T12:24:48;6.63;;;6.03;;
1366;SDS011;16877;48.810;9.282;2023-03-01T12:27:39;6.40;;;5.77;;
1366;SDS011;16877;48.810;9.282;2023-03-01T12:30:50;7.60;;;6.13;;
1366;SDS011;16877;48.810;9.282;2023-03-01T12:33:31;6.20;;;5.60;;
1366;SDS011;16877;48.810;9.282;2023-03-01T12:36:15;5.67;;;5.17;;
1366;SDS011;16877;48.810;9.282;2023-03-01T12:39:20;6.10;;;5.50;;
1366;SDS011;16877;48.810;9.282;2023-03-01T12:42:16;7.37;;;5.77;;
1366;SDS011;16877;48.810;9.282;2023-03-01T12:44:54;7.43;;;6.73;;
1366;SDS011;16877;48.810;9.282;2023-03-01T12:47:58;6.83;;;6.17;;
1366;SDS011;16877;48.810;9.282;2023-03-01T12:50:41;7.50;;;6.53;;
1366;SDS011;16877;48.810;9.282;2023-03-01T12:53:29;6.47;;;5.87;;
1366;SDS011;16877;48.810;9.282;2023-03-01T12:56:02;6.47;;;5.87;;
1366;SDS011;16877;48.810;9.282;2023-03-01T12:58:35;7.70;;;6.93;;
1366;SDS011;16877;48.810;9.282;2023-03-01T13:01:14;6.87;;;6.20;;
1366;SDS011;16877;48.810;9.282;2023-03-01T13:03:56;7.63;;;7.00;;
1366;SDS011;16877;48.810;9.282;2023-03-01T13:06:50;6.77;;;6.17;;
1366;SDS011;16877;48.810;9.282;2023-03-01T13:09:27;6.70;;;6.10;;
1366;SDS011;16877;48.810;9.282;2023-03-01T13:11:59;7.60;;;6.30;;
1366;SDS011;16877;48.810;9.282;2023-03-01T13:14:44;6.40;;;5.80;;
1366;SDS011;16877;48.810;9.282;2023-03-01T13:17:31;7.00;;;6.30;;
1366;SDS011;16877;48.810;9.282;2023-03-01T13:20:11;6.10;;;5.50;;
1366;SDS011;16877;48.810;9.282;2023-03-01T13:22:41;6.30;;;5.70;;
1366;SDS011;16877;48.810;9.282;2023-03-01T13:25:14;7.57;;;6.50;;
1366;SDS011;16877;48.810;9.282;2023-03-01T13:27:44;6.53;;;5.83;;
1366;SDS011;16877;48.810;9.282;2023-03-01T13:36:06;7.70;;;7.00;;
1366;SDS011;16877;48.810;9.282;2023-03-01T13:38:39;8.20;;;7.47;;
1366;SDS011;16877;48.810;9.282;2023-03-01T13:41:14;8.83;;;8.03;;
1366;SDS011;16877;48.810;9.282;2023-03-01T13:43:45;7.80;;;7.00;;
1366;SDS011;16877;48.810;9.282;2023-03-01T13:46:16;7.70;;;6.20;;
1366;SDS011;16877;48.810;9.282;2023-03-01T13:48:47;9.23;;;8.43;;
1366;SDS011;16877;48.810;9.282;2023-03-01T13:51:20;7.87;;;7.17;;
1366;SDS011;16877;48.810;9.282;2023-03-01T13:53:50;8.00;;;6.33;;
1366;SDS011;16877;48.810;9.282;2023-03-01T13:56:21;7.37;;;6.67;;
1366;SDS011;16877;48.810;9.282;2023-03-01T13:58:53;6.07;;;5.50;;
1366;SDS011;16877;48.810;9.282;2023-03-01T14:01:39;8.30;;;6.87;;
1366;SDS011;16877;48.810;9.282;2023-03-01T14:04:17;8.60;;;7.47;;
1366;SDS011;16877;48.810;9.282;2023-03-01T14:06:48;9.63;;;8.63;;
1366;SDS011;16877;48.810;9.282;2023-03-01T14:09:17;7.87;;;7.07;;
1366;SDS011;16877;48.810;9.282;2023-03-01T14:12:03;8.53;;;7.83;;
1366;SDS011;16877;48.810;9.282;2023-03-01T14:14:44;8.20;;;7.40;;
1366;SDS011;16877;48.810;9.282;2023-03-01T14:17:22;8.33;;;7.53;;
1366;SDS011;16877;48.810;9.282;2023-03-01T14:20:02;9.00;;;6.10;;
1366;SDS011;16877;48.810;9.282;2023-03-01T14:22:34;6.73;;;6.10;;
1366;SDS011;16877;48.810;9.282;2023-03-01T14:25:04;7.87;;;7.17;;
1366;SDS011;16877;48.810;9.282;2023-03-01T14:27:50;6.73;;;6.10;;
1366;SDS011;16877;48.810;9.282;2023-03-01T14:30:23;8.30;;;6.50;;
1366;SDS011;16877;48.810;9.282;2023-03-01T14:32:54;9.50;;;7.30;;
1366;SDS011;16877;48.810;9.282;2023-03-01T14:35:23;9.97;;;8.77;;
1366;SDS011;16877;48.810;9.282;2023-03-01T14:37:52;10.67;;;9.67;;
1366;SDS011;16877;48.810;9.282;2023-03-01T14:40:21;10.13;;;9.13;;
1366;SDS011;16877;48.810;9.282;2023-03-01T14:42:52;10.53;;;9.53;;
1366;SDS011;16877;48.810;9.282;2023-03-01T14:45:21;9.90;;;9.00;;
1366;SDS011;16877;48.810;9.282;2023-03-01T14:47:51;11.17;;;10.03;;
1366;SDS011;16877;48.810;9.282;2023-03-01T14:50:22;9.97;;;9.00;;
1366;SDS011;16877;48.810;9.282;2023-03-01T14:52:52;12.10;;;10.40;;
1366;SDS011;16877;48.810;9.282;2023-03-01T14:55:24;12.30;;;11.00;;
1366;SDS011;16877;48.810;9.282;2023-03-01T14:57:56;15.00;;;12.13;;
1366;SDS011;16877;48.810;9.282;2023-03-01T15:00:25;13.60;;;12.23;;
1366;SDS011;16877;48.810;9.282;2023-03-01T15:02:55;21.90;;;16.00;;
1366;SDS011;16877;48.810;9.282;2023-03-01T15:05:27;58.20;;;50.97;;
1366;SDS011;16877;48.810;9.282;2023-03-01T15:07:56;70.87;;;63.63;;
1366;SDS011;16877;48.810;9.282;2023-03-01T15:10:25;70.33;;;63.03;;
1366;SDS011;16877;48.810;9.282;2023-03-01T15:12:56;80.07;;;64.77;;
1366;SDS011;16877;48.810;9.282;2023-03-01T15:15:36;95.73;;;74.53;;
1366;SDS011;16877;48.810;9.282;2023-03-01T15:18:06;81.53;;;66.30;;
1366;SDS011;16877;48.810;9.282;2023-03-01T15:20:44;64.40;;;55.33;;
1366;SDS011;16877;48.810;9.282;2023-03-01T15:23:20;54.23;;;48.33;;